Belorechensk, Russia
Current Conditions -  °F | °C
As of 2:30 AM on Monday 24 Nov 2014 (Local Time) from URKK Reporting Station
Clear Clear  
Wind Chill: 15°   Ceiling: Unl
Heat Index: 23°   Visibility: 6mi
Dew Point: 19°   Wind: 7mph
Humidity: 86%   Direction: 50°NE
Pressure: 30.33"   Gusts: NA
Location:  44.77°N, 39.87°E
Report Text: URKK 232330Z 05003MPS CAVOK M05/M07 Q1027 NOSIG RMK QFE767SC070
Loading
Personal Weather Stations






























Interactive Weather Map New forecast layout! Learn more

10-Day Weather Forecast

Advertisements
Track Severe Weather on mobile